sensor_id;sensor_type;location;lat;lon;timestamp;pressure;altitude;pressure_sealevel;temperature;humidity
52651;BME280;38537;47.226;39.702;2023-01-27T00:00:57;101402.25;;;-1.74;55.95
52651;BME280;38537;47.226;39.702;2023-01-27T00:03:25;101404.50;;;-1.84;55.85
52651;BME280;38537;47.226;39.702;2023-01-27T00:05:52;101410.47;;;-1.67;55.39
52651;BME280;38537;47.226;39.702;2023-01-27T00:08:19;101405.19;;;-1.68;55.78
52651;BME280;38537;47.226;39.702;2023-01-27T00:10:47;101396.97;;;-1.68;55.89
52651;BME280;38537;47.226;39.702;2023-01-27T00:13:34;101406.03;;;-1.68;55.47
52651;BME280;38537;47.226;39.702;2023-01-27T00:16:01;101380.22;;;-1.93;56.05
52651;BME280;38537;47.226;39.702;2023-01-27T00:18:28;101380.47;;;-1.88;56.77
52651;BME280;38537;47.226;39.702;2023-01-27T00:20:55;101361.50;;;-1.90;56.35
52651;BME280;38537;47.226;39.702;2023-01-27T00:23:41;101373.66;;;-1.99;56.96
52651;BME280;38537;47.226;39.702;2023-01-27T00:26:27;101395.16;;;-1.96;56.69
52651;BME280;38537;47.226;39.702;2023-01-27T00:28:55;101368.16;;;-2.05;56.85
52651;BME280;38537;47.226;39.702;2023-01-27T00:31:22;101385.47;;;-1.98;57.33
52651;BME280;38537;47.226;39.702;2023-01-27T00:34:08;101366.84;;;-2.10;57.31
52651;BME280;38537;47.226;39.702;2023-01-27T00:36:37;101369.25;;;-2.28;57.85
52651;BME280;38537;47.226;39.702;2023-01-27T00:39:06;101389.13;;;-2.19;58.12
52651;BME280;38537;47.226;39.702;2023-01-27T00:41:35;101387.66;;;-2.15;57.82
52651;BME280;38537;47.226;39.702;2023-01-27T00:44:03;101396.28;;;-2.18;58.00
52651;BME280;38537;47.226;39.702;2023-01-27T00:46:33;101393.75;;;-2.20;58.66
52651;BME280;38537;47.226;39.702;2023-01-27T00:49:00;101376.38;;;-2.33;58.68
52651;BME280;38537;47.226;39.702;2023-01-27T00:51:29;101384.78;;;-2.35;59.19
52651;BME280;38537;47.226;39.702;2023-01-27T00:53:56;101393.09;;;-2.22;58.83
52651;BME280;38537;47.226;39.702;2023-01-27T00:56:25;101394.53;;;-2.26;59.28
52651;BME280;38537;47.226;39.702;2023-01-27T00:58:54;101388.81;;;-2.31;58.92
52651;BME280;38537;47.226;39.702;2023-01-27T01:01:22;101365.78;;;-2.43;59.51
52651;BME280;38537;47.226;39.702;2023-01-27T01:03:49;101380.50;;;-2.44;59.23
52651;BME280;38537;47.226;39.702;2023-01-27T01:06:17;101375.81;;;-2.50;60.44
52651;BME280;38537;47.226;39.702;2023-01-27T01:08:47;101374.88;;;-2.36;60.45
52651;BME280;38537;47.226;39.702;2023-01-27T01:11:16;101371.00;;;-2.48;60.53
52651;BME280;38537;47.226;39.702;2023-01-27T01:13:43;101343.78;;;-2.63;60.64
52651;BME280;38537;47.226;39.702;2023-01-27T01:16:14;101387.59;;;-2.50;60.44
52651;BME280;38537;47.226;39.702;2023-01-27T01:18:42;101377.44;;;-2.56;60.79
52651;BME280;38537;47.226;39.702;2023-01-27T01:21:11;101359.97;;;-2.61;60.75
52651;BME280;38537;47.226;39.702;2023-01-27T01:23:44;101350.09;;;-2.62;61.12
52651;BME280;38537;47.226;39.702;2023-01-27T01:26:13;101367.44;;;-2.49;60.61
52651;BME280;38537;47.226;39.702;2023-01-27T01:28:42;101342.22;;;-2.44;60.65
52651;BME280;38537;47.226;39.702;2023-01-27T01:31:14;101346.72;;;-2.30;60.57
52651;BME280;38537;47.226;39.702;2023-01-27T01:33:43;101349.03;;;-2.33;60.52
52651;BME280;38537;47.226;39.702;2023-01-27T01:36:12;101332.06;;;-2.50;60.48
52651;BME280;38537;47.226;39.702;2023-01-27T01:38:42;101328.16;;;-2.69;61.34
52651;BME280;38537;47.226;39.702;2023-01-27T01:41:18;101349.91;;;-2.54;61.64
52651;BME280;38537;47.226;39.702;2023-01-27T01:43:49;101352.00;;;-2.56;61.75
52651;BME280;38537;47.226;39.702;2023-01-27T01:46:18;101333.03;;;-2.64;61.32
52651;BME280;38537;47.226;39.702;2023-01-27T01:48:53;101342.09;;;-2.57;62.24
52651;BME280;38537;47.226;39.702;2023-01-27T01:51:37;101348.22;;;-2.55;62.07
52651;BME280;38537;47.226;39.702;2023-01-27T01:54:12;101335.78;;;-2.58;62.00
52651;BME280;38537;47.226;39.702;2023-01-27T01:59:22;101352.16;;;-2.64;62.54
52651;BME280;38537;47.226;39.702;2023-01-27T02:01:55;101343.00;;;-2.50;62.39
52651;BME280;38537;47.226;39.702;2023-01-27T02:04:27;101336.16;;;-2.67;62.06
52651;BME280;38537;47.226;39.702;2023-01-27T02:07:06;101345.97;;;-2.73;62.36
52651;BME280;38537;47.226;39.702;2023-01-27T02:09:37;101343.34;;;-2.88;62.83
52651;BME280;38537;47.226;39.702;2023-01-27T02:12:05;101328.88;;;-3.03;62.65
52651;BME280;38537;47.226;39.702;2023-01-27T02:14:36;101336.84;;;-3.08;62.73
52651;BME280;38537;47.226;39.702;2023-01-27T02:17:23;101332.69;;;-3.04;62.56
52651;BME280;38537;47.226;39.702;2023-01-27T02:22:26;101350.75;;;-2.82;63.31
52651;BME280;38537;47.226;39.702;2023-01-27T02:25:06;101344.03;;;-2.79;63.65
52651;BME280;38537;47.226;39.702;2023-01-27T02:27:38;101346.72;;;-2.86;62.93
52651;BME280;38537;47.226;39.702;2023-01-27T02:30:06;101344.38;;;-2.89;63.21
52651;BME280;38537;47.226;39.702;2023-01-27T02:32:36;101335.81;;;-3.07;63.66
52651;BME280;38537;47.226;39.702;2023-01-27T02:35:10;101332.81;;;-3.12;64.31
52651;BME280;38537;47.226;39.702;2023-01-27T02:37:42;101346.53;;;-3.05;63.34
52651;BME280;38537;47.226;39.702;2023-01-27T02:40:11;101353.03;;;-3.06;63.91
52651;BME280;38537;47.226;39.702;2023-01-27T02:42:40;101345.94;;;-3.01;64.16
52651;BME280;38537;47.226;39.702;2023-01-27T02:45:07;101327.22;;;-3.04;63.87
52651;BME280;38537;47.226;39.702;2023-01-27T02:47:35;101334.22;;;-2.95;63.67
52651;BME280;38537;47.226;39.702;2023-01-27T02:50:02;101343.34;;;-2.88;64.23
52651;BME280;38537;47.226;39.702;2023-01-27T02:52:30;101320.06;;;-3.05;63.68
52651;BME280;38537;47.226;39.702;2023-01-27T02:54:57;101329.31;;;-3.06;63.68
52651;BME280;38537;47.226;39.702;2023-01-27T02:57:26;101333.97;;;-3.00;64.24
52651;BME280;38537;47.226;39.702;2023-01-27T03:00:15;101332.41;;;-2.88;64.18
52651;BME280;38537;47.226;39.702;2023-01-27T03:02:42;101304.91;;;-3.07;64.34
52651;BME280;38537;47.226;39.702;2023-01-27T03:05:10;101330.84;;;-2.97;64.38
52651;BME280;38537;47.226;39.702;2023-01-27T03:07:37;101311.59;;;-3.10;64.59
52651;BME280;38537;47.226;39.702;2023-01-27T03:10:05;101338.34;;;-3.05;64.55
52651;BME280;38537;47.226;39.702;2023-01-27T03:12:35;101317.91;;;-3.09;64.70
52651;BME280;38537;47.226;39.702;2023-01-27T03:15:02;101298.91;;;-3.18;64.67
52651;BME280;38537;47.226;39.702;2023-01-27T03:17:52;101318.63;;;-3.01;64.91
52651;BME280;38537;47.226;39.702;2023-01-27T03:20:44;101328.97;;;-2.96;65.44
52651;BME280;38537;47.226;39.702;2023-01-27T03:23:17;101347.50;;;-2.92;64.87
52651;BME280;38537;47.226;39.702;2023-01-27T03:25:48;101321.88;;;-3.12;64.49
52651;BME280;38537;47.226;39.702;2023-01-27T03:28:16;101329.03;;;-3.11;64.63
52651;BME280;38537;47.226;39.702;2023-01-27T03:31:09;101314.16;;;-3.08;65.38
52651;BME280;38537;47.226;39.702;2023-01-27T03:33:58;101334.13;;;-3.08;64.64
52651;BME280;38537;47.226;39.702;2023-01-27T03:36:32;101313.81;;;-3.20;64.74
52651;BME280;38537;47.226;39.702;2023-01-27T03:39:17;101328.91;;;-2.82;65.82
52651;BME280;38537;47.226;39.702;2023-01-27T03:42:03;101331.63;;;-3.03;64.19
52651;BME280;38537;47.226;39.702;2023-01-27T03:44:49;101308.09;;;-3.25;64.84
52651;BME280;38537;47.226;39.702;2023-01-27T03:47:35;101328.13;;;-3.18;64.80
52651;BME280;38537;47.226;39.702;2023-01-27T03:50:04;101311.88;;;-3.26;64.91
52651;BME280;38537;47.226;39.702;2023-01-27T03:52:37;101332.22;;;-3.07;65.44
52651;BME280;38537;47.226;39.702;2023-01-27T03:55:05;101336.47;;;-3.05;65.26
52651;BME280;38537;47.226;39.702;2023-01-27T03:57:36;101331.88;;;-3.19;65.10
52651;BME280;38537;47.226;39.702;2023-01-27T04:00:04;101317.16;;;-3.25;65.17
52651;BME280;38537;47.226;39.702;2023-01-27T04:02:38;101327.06;;;-2.96;65.39
52651;BME280;38537;47.226;39.702;2023-01-27T04:05:25;101335.25;;;-2.96;65.12
52651;BME280;38537;47.226;39.702;2023-01-27T04:08:10;101332.00;;;-2.63;66.42
52651;BME280;38537;47.226;39.702;2023-01-27T04:10:37;101316.53;;;-2.99;64.18
52651;BME280;38537;47.226;39.702;2023-01-27T04:13:05;101316.69;;;-3.07;64.78
52651;BME280;38537;47.226;39.702;2023-01-27T04:15:32;101320.69;;;-3.03;65.01
52651;BME280;38537;47.226;39.702;2023-01-27T04:18:00;101319.81;;;-3.10;65.02
52651;BME280;38537;47.226;39.702;2023-01-27T04:20:27;101326.81;;;-3.01;65.39
52651;BME280;38537;47.226;39.702;2023-01-27T04:22:54;101315.66;;;-3.06;65.12
52651;BME280;38537;47.226;39.702;2023-01-27T04:25:23;101330.84;;;-2.97;64.87
52651;BME280;38537;47.226;39.702;2023-01-27T04:27:50;101322.78;;;-2.84;65.02
52651;BME280;38537;47.226;39.702;2023-01-27T04:30:18;101331.63;;;-2.82;65.05
52651;BME280;38537;47.226;39.702;2023-01-27T04:32:45;101322.00;;;-2.99;64.43
52651;BME280;38537;47.226;39.702;2023-01-27T04:35:12;101314.16;;;-2.81;64.83
52651;BME280;38537;47.226;39.702;2023-01-27T04:37:40;101329.00;;;-2.68;64.37
52651;BME280;38537;47.226;39.702;2023-01-27T04:40:11;101312.50;;;-2.82;64.31
52651;BME280;38537;47.226;39.702;2023-01-27T04:42:39;101336.09;;;-2.74;64.28
52651;BME280;38537;47.226;39.702;2023-01-27T04:45:06;101330.78;;;-2.82;64.44
52651;BME280;38537;47.226;39.702;2023-01-27T04:47:33;101320.19;;;-2.92;64.80
52651;BME280;38537;47.226;39.702;2023-01-27T04:50:01;101321.31;;;-2.80;64.23
52651;BME280;38537;47.226;39.702;2023-01-27T04:52:29;101318.53;;;-2.58;64.50
52651;BME280;38537;47.226;39.702;2023-01-27T04:54:56;101329.66;;;-2.66;63.83
52651;BME280;38537;47.226;39.702;2023-01-27T04:57:23;101352.31;;;-2.45;64.21
52651;BME280;38537;47.226;39.702;2023-01-27T04:59:51;101330.56;;;-2.25;63.79
52651;BME280;38537;47.226;39.702;2023-01-27T05:02:18;101339.69;;;-2.11;62.94
52651;BME280;38537;47.226;39.702;2023-01-27T05:04:46;101345.06;;;-1.96;62.67
52651;BME280;38537;47.226;39.702;2023-01-27T05:07:13;101332.06;;;-1.81;62.46
52651;BME280;38537;47.226;39.702;2023-01-27T05:09:40;101339.50;;;-1.68;61.79
52651;BME280;38537;47.226;39.702;2023-01-27T05:12:07;101349.44;;;-1.61;61.73
52651;BME280;38537;47.226;39.702;2023-01-27T05:14:34;101350.84;;;-1.72;61.83
52651;BME280;38537;47.226;39.702;2023-01-27T05:17:01;101341.63;;;-1.64;61.88
52651;BME280;38537;47.226;39.702;2023-01-27T05:19:29;101340.97;;;-1.66;61.21
52651;BME280;38537;47.226;39.702;2023-01-27T05:21:57;101346.25;;;-1.64;61.80
52651;BME280;38537;47.226;39.702;2023-01-27T05:24:24;101330.59;;;-1.84;61.67
52651;BME280;38537;47.226;39.702;2023-01-27T05:26:51;101346.06;;;-1.63;61.88
52651;BME280;38537;47.226;39.702;2023-01-27T05:29:20;101325.97;;;-1.83;61.42
52651;BME280;38537;47.226;39.702;2023-01-27T05:31:47;101333.31;;;-1.84;61.57
52651;BME280;38537;47.226;39.702;2023-01-27T05:34:14;101335.38;;;-1.92;61.78
52651;BME280;38537;47.226;39.702;2023-01-27T05:36:42;101353.19;;;-2.10;61.19
52651;BME280;38537;47.226;39.702;2023-01-27T05:39:10;101354.22;;;-2.11;61.92
52651;BME280;38537;47.226;39.702;2023-01-27T05:41:37;101338.63;;;-2.17;62.47
52651;BME280;38537;47.226;39.702;2023-01-27T05:44:05;101347.63;;;-1.88;62.39
52651;BME280;38537;47.226;39.702;2023-01-27T05:46:32;101364.47;;;-1.85;61.38
52651;BME280;38537;47.226;39.702;2023-01-27T05:49:01;101343.97;;;-2.02;61.57
52651;BME280;38537;47.226;39.702;2023-01-27T05:51:33;101352.66;;;-1.92;62.48
52651;BME280;38537;47.226;39.702;2023-01-27T05:54:01;101348.22;;;-1.93;62.11
52651;BME280;38537;47.226;39.702;2023-01-27T05:56:28;101362.00;;;-1.73;61.59
52651;BME280;38537;47.226;39.702;2023-01-27T05:58:56;101372.09;;;-1.32;61.25
52651;BME280;38537;47.226;39.702;2023-01-27T06:01:26;101353.69;;;-1.45;60.95
52651;BME280;38537;47.226;39.702;2023-01-27T06:03:54;101352.00;;;-1.46;60.41
52651;BME280;38537;47.226;39.702;2023-01-27T06:06:24;101361.75;;;-1.37;60.41
52651;BME280;38537;47.226;39.702;2023-01-27T06:08:51;101358.72;;;-1.49;60.61
52651;BME280;38537;47.226;39.702;2023-01-27T06:11:20;101363.66;;;-1.24;60.84
52651;BME280;38537;47.226;39.702;2023-01-27T06:13:47;101348.69;;;-1.28;60.41
52651;BME280;38537;47.226;39.702;2023-01-27T06:16:17;101366.88;;;-1.08;60.45
52651;BME280;38537;47.226;39.702;2023-01-27T06:18:46;101350.88;;;-0.97;59.67
52651;BME280;38537;47.226;39.702;2023-01-27T06:21:15;101337.59;;;-0.81;59.50
52651;BME280;38537;47.226;39.702;2023-01-27T06:23:43;101339.72;;;-0.70;59.19
52651;BME280;38537;47.226;39.702;2023-01-27T06:26:15;101324.56;;;-0.65;59.10
52651;BME280;38537;47.226;39.702;2023-01-27T06:28:43;101318.41;;;-0.61;58.62
52651;BME280;38537;47.226;39.702;2023-01-27T06:31:14;101319.22;;;-0.41;58.99
52651;BME280;38537;47.226;39.702;2023-01-27T06:33:43;101326.78;;;-0.16;58.28
52651;BME280;38537;47.226;39.702;2023-01-27T06:36:12;101332.06;;;-0.02;58.57
52651;BME280;38537;47.226;39.702;2023-01-27T06:38:40;101327.78;;;0.16;58.05
52651;BME280;38537;47.226;39.702;2023-01-27T06:41:08;101327.59;;;0.11;57.21
52651;BME280;38537;47.226;39.702;2023-01-27T06:43:35;101298.63;;;0.21;57.57
52651;BME280;38537;47.226;39.702;2023-01-27T06:46:03;101319.06;;;0.32;57.02
52651;BME280;38537;47.226;39.702;2023-01-27T06:48:32;101297.50;;;0.29;56.50
52651;BME280;38537;47.226;39.702;2023-01-27T06:51:00;101286.97;;;0.26;56.61
52651;BME280;38537;47.226;39.702;2023-01-27T06:53:27;101286.00;;;0.45;56.53
52651;BME280;38537;47.226;39.702;2023-01-27T06:55:58;101312.91;;;0.75;56.48
52651;BME280;38537;47.226;39.702;2023-01-27T06:58:27;101301.44;;;0.84;55.83
52651;BME280;38537;47.226;39.702;2023-01-27T07:00:54;101302.06;;;0.86;55.91
52651;BME280;38537;47.226;39.702;2023-01-27T07:03:22;101301.94;;;0.75;54.95
52651;BME280;38537;47.226;39.702;2023-01-27T07:05:49;101302.44;;;0.58;55.28
52651;BME280;38537;47.226;39.702;2023-01-27T07:08:17;101286.16;;;0.19;55.80
52651;BME280;38537;47.226;39.702;2023-01-27T07:10:44;101307.50;;;0.17;55.66
52651;BME280;38537;47.226;39.702;2023-01-27T07:13:12;101291.25;;;0.09;56.31
52651;BME280;38537;47.226;39.702;2023-01-27T07:15:40;101294.41;;;0.19;56.64
52651;BME280;38537;47.226;39.702;2023-01-27T07:18:09;101311.81;;;0.44;56.35
52651;BME280;38537;47.226;39.702;2023-01-27T07:20:36;101306.72;;;0.48;56.01
52651;BME280;38537;47.226;39.702;2023-01-27T07:23:04;101290.72;;;0.38;55.95
52651;BME280;38537;47.226;39.702;2023-01-27T07:25:33;101287.44;;;0.61;55.81
52651;BME280;38537;47.226;39.702;2023-01-27T07:28:01;101295.03;;;0.90;55.83
52651;BME280;38537;47.226;39.702;2023-01-27T07:30:29;101284.91;;;0.91;55.07
52651;BME280;38537;47.226;39.702;2023-01-27T07:33:09;101298.44;;;1.17;55.88
52651;BME280;38537;47.226;39.702;2023-01-27T07:35:37;101280.56;;;1.08;55.08
52651;BME280;38537;47.226;39.702;2023-01-27T07:38:05;101287.13;;;1.07;54.90
52651;BME280;38537;47.226;39.702;2023-01-27T07:40:33;101277.22;;;0.99;55.12
52651;BME280;38537;47.226;39.702;2023-01-27T07:43:01;101283.56;;;1.00;55.04
52651;BME280;38537;47.226;39.702;2023-01-27T07:45:28;101300.75;;;1.20;55.68
52651;BME280;38537;47.226;39.702;2023-01-27T07:48:05;101301.03;;;1.37;55.50
52651;BME280;38537;47.226;39.702;2023-01-27T07:50:33;101297.94;;;1.52;55.21
52651;BME280;38537;47.226;39.702;2023-01-27T07:53:02;101297.78;;;1.71;54.74
52651;BME280;38537;47.226;39.702;2023-01-27T07:55:31;101299.38;;;1.79;54.31
52651;BME280;38537;47.226;39.702;2023-01-27T07:58:06;101256.44;;;1.53;54.06
52651;BME280;38537;47.226;39.702;2023-01-27T08:00:34;101273.03;;;1.47;54.05
52651;BME280;38537;47.226;39.702;2023-01-27T08:03:02;101274.13;;;1.64;54.91
52651;BME280;38537;47.226;39.702;2023-01-27T08:05:33;101285.56;;;1.61;54.13
52651;BME280;38537;47.226;39.702;2023-01-27T08:08:00;101281.94;;;1.42;54.14
52651;BME280;38537;47.226;39.702;2023-01-27T08:10:30;101283.22;;;1.64;54.90
52651;BME280;38537;47.226;39.702;2023-01-27T08:12:58;101263.06;;;1.70;54.44
52651;BME280;38537;47.226;39.702;2023-01-27T08:15:25;101252.53;;;1.61;54.41
52651;BME280;38537;47.226;39.702;2023-01-27T08:17:56;101272.28;;;1.76;54.32
52651;BME280;38537;47.226;39.702;2023-01-27T08:20:25;101256.53;;;1.83;54.15
52651;BME280;38537;47.226;39.702;2023-01-27T08:22:53;101248.41;;;2.25;54.62
52651;BME280;38537;47.226;39.702;2023-01-27T08:25:21;101261.91;;;2.45;53.54
52651;BME280;38537;47.226;39.702;2023-01-27T08:27:50;101244.31;;;2.46;53.10
52651;BME280;38537;47.226;39.702;2023-01-27T08:30:19;101245.91;;;2.53;53.26
52651;BME280;38537;47.226;39.702;2023-01-27T08:32:47;101227.28;;;2.37;52.54
52651;BME280;38537;47.226;39.702;2023-01-27T08:35:14;101223.19;;;2.39;53.74
52651;BME280;38537;47.226;39.702;2023-01-27T08:37:42;101230.47;;;2.64;53.87
52651;BME280;38537;47.226;39.702;2023-01-27T08:40:12;101226.00;;;3.04;53.99
52651;BME280;38537;47.226;39.702;2023-01-27T08:42:40;101207.66;;;3.10;53.18
52651;BME280;38537;47.226;39.702;2023-01-27T08:45:08;101213.78;;;3.12;53.54
52651;BME280;38537;47.226;39.702;2023-01-27T08:47:35;101211.78;;;3.19;52.93
52651;BME280;38537;47.226;39.702;2023-01-27T08:50:02;101191.38;;;3.43;53.47
52651;BME280;38537;47.226;39.702;2023-01-27T08:52:29;101195.19;;;3.66;52.44
52651;BME280;38537;47.226;39.702;2023-01-27T08:54:57;101179.53;;;3.83;52.19
52651;BME280;38537;47.226;39.702;2023-01-27T08:57:24;101199.06;;;4.33;52.20
52651;BME280;38537;47.226;39.702;2023-01-27T08:59:51;101189.06;;;4.44;51.43
52651;BME280;38537;47.226;39.702;2023-01-27T09:02:19;101183.03;;;4.47;51.75
52651;BME280;38537;47.226;39.702;2023-01-27T09:04:49;101173.63;;;4.31;50.58
52651;BME280;38537;47.226;39.702;2023-01-27T09:07:17;101187.09;;;3.88;50.78
52651;BME280;38537;47.226;39.702;2023-01-27T09:09:47;101177.78;;;3.54;51.45
52651;BME280;38537;47.226;39.702;2023-01-27T09:12:16;101155.09;;;3.52;52.53
52651;BME280;38537;47.226;39.702;2023-01-27T09:14:43;101162.78;;;3.50;51.64
52651;BME280;38537;47.226;39.702;2023-01-27T09:17:10;101187.66;;;3.38;51.79
52651;BME280;38537;47.226;39.702;2023-01-27T09:19:37;101156.78;;;2.83;52.37
52651;BME280;38537;47.226;39.702;2023-01-27T09:22:05;101166.13;;;2.82;52.84
52651;BME280;38537;47.226;39.702;2023-01-27T09:24:32;101148.22;;;2.61;53.07
52651;BME280;38537;47.226;39.702;2023-01-27T09:26:59;101160.00;;;2.68;53.44
52651;BME280;38537;47.226;39.702;2023-01-27T09:29:27;101158.03;;;2.45;53.51
52651;BME280;38537;47.226;39.702;2023-01-27T09:31:55;101173.50;;;2.46;54.22
52651;BME280;38537;47.226;39.702;2023-01-27T09:34:22;101144.28;;;2.57;54.31
52651;BME280;38537;47.226;39.702;2023-01-27T09:36:59;101149.72;;;2.75;54.21
52651;BME280;38537;47.226;39.702;2023-01-27T09:39:30;101145.03;;;2.75;54.16
52651;BME280;38537;47.226;39.702;2023-01-27T10:00:04;101128.19;;;3.59;54.04
52651;BME280;38537;47.226;39.702;2023-01-27T10:11:16;101124.53;;;3.30;53.39
52651;BME280;38537;47.226;39.702;2023-01-27T10:16:46;101130.97;;;3.99;53.66
52651;BME280;38537;47.226;39.702;2023-01-27T10:19:45;101114.38;;;4.27;53.08
52651;BME280;38537;47.226;39.702;2023-01-27T10:24:59;101103.63;;;4.14;52.99
52651;BME280;38537;47.226;39.702;2023-01-27T10:27:36;101073.88;;;4.04;52.15
52651;BME280;38537;47.226;39.702;2023-01-27T10:30:33;101104.66;;;4.25;52.33
52651;BME280;38537;47.226;39.702;2023-01-27T10:33:03;101111.13;;;4.02;51.86
52651;BME280;38537;47.226;39.702;2023-01-27T10:41:35;101071.47;;;4.25;52.74
52651;BME280;38537;47.226;39.702;2023-01-27T10:47:18;101085.38;;;5.13;51.60
52651;BME280;38537;47.226;39.702;2023-01-27T10:49:51;101069.13;;;4.83;50.75
52651;BME280;38537;47.226;39.702;2023-01-27T10:52:28;101057.94;;;4.73;50.92
52651;BME280;38537;47.226;39.702;2023-01-27T10:54:59;101057.97;;;4.78;51.20
52651;BME280;38537;47.226;39.702;2023-01-27T10:57:38;101051.31;;;4.74;50.90
52651;BME280;38537;47.226;39.702;2023-01-27T11:00:15;101056.16;;;4.67;50.92
52651;BME280;38537;47.226;39.702;2023-01-27T11:03:21;101056.16;;;4.67;50.52
52651;BME280;38537;47.226;39.702;2023-01-27T11:05:52;101072.28;;;4.54;51.31
52651;BME280;38537;47.226;39.702;2023-01-27T11:08:24;101050.94;;;4.21;51.83
52651;BME280;38537;47.226;39.702;2023-01-27T11:10:56;101062.28;;;4.53;51.57
52651;BME280;38537;47.226;39.702;2023-01-27T11:13:45;101041.16;;;4.63;51.60
52651;BME280;38537;47.226;39.702;2023-01-27T11:16:15;101057.06;;;4.90;51.31
52651;BME280;38537;47.226;39.702;2023-01-27T11:18:44;101036.38;;;4.59;50.89
52651;BME280;38537;47.226;39.702;2023-01-27T11:21:24;101060.03;;;4.66;51.40
52651;BME280;38537;47.226;39.702;2023-01-27T11:23:54;101066.72;;;4.87;51.72
52651;BME280;38537;47.226;39.702;2023-01-27T11:28:54;101048.63;;;5.18;51.50
52651;BME280;38537;47.226;39.702;2023-01-27T11:40:17;101016.97;;;4.92;51.80
52651;BME280;38537;47.226;39.702;2023-01-27T11:42:47;101025.81;;;5.11;51.44
52651;BME280;38537;47.226;39.702;2023-01-27T11:45:19;101047.56;;;5.24;51.07
52651;BME280;38537;47.226;39.702;2023-01-27T11:47:50;101042.63;;;5.26;51.11
52651;BME280;38537;47.226;39.702;2023-01-27T11:50:20;101044.13;;;5.56;51.03
52651;BME280;38537;47.226;39.702;2023-01-27T11:52:51;101038.66;;;5.88;50.11
52651;BME280;38537;47.226;39.702;2023-01-27T11:55:25;101026.44;;;6.10;50.09
52651;BME280;38537;47.226;39.702;2023-01-27T11:58:00;101011.34;;;5.96;49.95
52651;BME280;38537;47.226;39.702;2023-01-27T12:00:37;101035.03;;;5.87;49.09
52651;BME280;38537;47.226;39.702;2023-01-27T12:06:04;101034.19;;;5.60;50.38
52651;BME280;38537;47.226;39.702;2023-01-27T12:08:42;101030.69;;;5.91;50.46
52651;BME280;38537;47.226;39.702;2023-01-27T12:13:58;101050.78;;;6.03;49.26
52651;BME280;38537;47.226;39.702;2023-01-27T12:16:41;101050.66;;;5.71;49.43
52651;BME280;38537;47.226;39.702;2023-01-27T12:19:24;101036.59;;;5.29;50.21
52651;BME280;38537;47.226;39.702;2023-01-27T12:21:56;101042.25;;;5.18;50.40
52651;BME280;38537;47.226;39.702;2023-01-27T12:24:33;101032.00;;;4.96;50.75
52651;BME280;38537;47.226;39.702;2023-01-27T12:27:03;101023.78;;;4.85;50.92
52651;BME280;38537;47.226;39.702;2023-01-27T12:29:48;101040.47;;;4.90;51.61
52651;BME280;38537;47.226;39.702;2023-01-27T12:32:27;101032.44;;;4.71;51.80
52651;BME280;38537;47.226;39.702;2023-01-27T12:34:58;101020.56;;;4.54;51.19
52651;BME280;38537;47.226;39.702;2023-01-27T12:37:30;101028.91;;;4.59;51.89
52651;BME280;38537;47.226;39.702;2023-01-27T12:40:17;101025.38;;;4.80;51.44
52651;BME280;38537;47.226;39.702;2023-01-27T12:42:49;101040.75;;;5.10;51.68
52651;BME280;38537;47.226;39.702;2023-01-27T12:45:32;101040.88;;;5.20;51.33
52651;BME280;38537;47.226;39.702;2023-01-27T12:48:15;101038.50;;;5.29;50.97
52651;BME280;38537;47.226;39.702;2023-01-27T12:53:16;101038.84;;;5.32;50.47
52651;BME280;38537;47.226;39.702;2023-01-27T12:56:00;101041.53;;;5.27;51.02
52651;BME280;38537;47.226;39.702;2023-01-27T12:58:39;101035.03;;;5.16;50.76
52651;BME280;38537;47.226;39.702;2023-01-27T13:01:34;101037.81;;;5.16;51.36
52651;BME280;38537;47.226;39.702;2023-01-27T13:04:18;101033.69;;;5.19;50.71
52651;BME280;38537;47.226;39.702;2023-01-27T13:06:47;101034.72;;;5.13;50.47
52651;BME280;38537;47.226;39.702;2023-01-27T13:12:01;101025.56;;;4.57;51.43
52651;BME280;38537;47.226;39.702;2023-01-27T13:14:38;101046.88;;;4.73;51.68
52651;BME280;38537;47.226;39.702;2023-01-27T13:17:38;101045.34;;;4.66;52.01
52651;BME280;38537;47.226;39.702;2023-01-27T13:20:43;101040.75;;;4.71;51.78
52651;BME280;38537;47.226;39.702;2023-01-27T13:23:19;101029.75;;;4.60;52.37
52651;BME280;38537;47.226;39.702;2023-01-27T13:25:56;101025.66;;;4.62;51.39
52651;BME280;38537;47.226;39.702;2023-01-27T13:28:33;101009.28;;;4.77;52.34
52651;BME280;38537;47.226;39.702;2023-01-27T13:34:12;101016.16;;;4.92;51.10
52651;BME280;38537;47.226;39.702;2023-01-27T13:36:47;101002.78;;;4.67;50.89
52651;BME280;38537;47.226;39.702;2023-01-27T13:39:32;101020.28;;;4.56;51.18
52651;BME280;38537;47.226;39.702;2023-01-27T13:47:48;101029.16;;;4.58;51.62
52651;BME280;38537;47.226;39.702;2023-01-27T13:50:25;101016.44;;;4.57;51.73
52651;BME280;38537;47.226;39.702;2023-01-27T13:52:56;101022.56;;;4.59;51.73
52651;BME280;38537;47.226;39.702;2023-01-27T14:12:38;101017.78;;;4.37;51.87
52651;BME280;38537;47.226;39.702;2023-01-27T14:36:57;101028.94;;;4.42;52.24
52651;BME280;38537;47.226;39.702;2023-01-27T14:42:18;100986.97;;;4.29;52.19
52651;BME280;38537;47.226;39.702;2023-01-27T14:47:43;101007.06;;;4.41;52.19
52651;BME280;38537;47.226;39.702;2023-01-27T14:55:30;100989.91;;;4.22;52.24
52651;BME280;38537;47.226;39.702;2023-01-27T15:03:11;101031.63;;;4.54;51.86
52651;BME280;38537;47.226;39.702;2023-01-27T15:05:54;101020.72;;;4.47;51.84
52651;BME280;38537;47.226;39.702;2023-01-27T15:08:38;101014.50;;;4.57;51.75
52651;BME280;38537;47.226;39.702;2023-01-27T15:11:28;101018.50;;;4.83;52.20
52651;BME280;38537;47.226;39.702;2023-01-27T15:25:41;100995.13;;;5.12;50.86
52651;BME280;38537;47.226;39.702;2023-01-27T15:28:12;100994.88;;;5.36;51.14
52651;BME280;38537;47.226;39.702;2023-01-27T15:36:36;101007.78;;;5.52;50.09
52651;BME280;38537;47.226;39.702;2023-01-27T15:41:51;100990.09;;;5.80;49.44